createdAt,value
2022-07-31T00:00:32.257Z,99847.70
2022-07-31T00:01:34.803Z,99845.00
2022-07-31T00:02:38.904Z,99842.45
2022-07-31T00:03:41.379Z,99838.91
2022-07-31T00:04:44.345Z,99836.20
2022-07-31T00:05:46.675Z,99841.77
2022-07-31T00:06:51.224Z,99841.04
2022-07-31T00:07:54.445Z,99831.09
2022-07-31T00:08:56.861Z,99827.52
2022-07-31T00:10:00.311Z,99832.09
2022-07-31T00:11:05.067Z,99831.09
2022-07-31T00:12:07.681Z,99827.38
2022-07-31T00:13:10.388Z,99825.55
2022-07-31T00:14:12.982Z,99826.37
2022-07-31T00:15:15.635Z,99823.83
2022-07-31T00:16:19.031Z,99822.12
2022-07-31T00:17:21.297Z,99814.88
2022-07-31T00:18:24.165Z,99825.70
2022-07-31T00:19:26.582Z,99816.71
2022-07-31T00:20:31.372Z,99816.71
2022-07-31T00:21:33.908Z,99815.88
2022-07-31T00:22:36.377Z,99820.29
2022-07-31T00:23:38.952Z,99815.88
2022-07-31T00:24:41.301Z,99813.17
2022-07-31T00:25:43.568Z,99816.71
2022-07-31T00:26:45.925Z,99815.03
2022-07-31T00:27:48.279Z,99806.77
2022-07-31T00:28:50.950Z,99812.17
2022-07-31T00:29:53.219Z,99817.58
2022-07-31T00:30:56.230Z,99814.88
2022-07-31T00:31:58.496Z,99812.17
2022-07-31T00:33:02.392Z,99815.72
2022-07-31T00:34:05.022Z,99814.88
2022-07-31T00:35:08.366Z,99814.88
2022-07-31T00:36:11.385Z,99809.48
2022-07-31T00:37:13.767Z,99806.92
2022-07-31T00:38:26.834Z,99813.32
2022-07-31T00:39:23.282Z,99805.21
2022-07-31T00:40:28.440Z,99804.34
2022-07-31T00:41:41.961Z,99804.34
2022-07-31T00:42:44.490Z,99812.33
2022-07-31T00:43:47.541Z,99812.33
2022-07-31T00:44:50.967Z,99808.75
2022-07-31T00:45:59.053Z,99802.51
2022-07-31T00:46:57.764Z,99810.62
2022-07-31T00:48:00.171Z,99808.75
2022-07-31T00:49:03.527Z,99801.64
2022-07-31T00:50:08.099Z,99804.34
2022-07-31T00:51:10.922Z,99803.50
2022-07-31T00:52:13.335Z,99796.38
2022-07-31T00:53:16.763Z,99801.79
2022-07-31T00:54:22.679Z,99799.09
2022-07-31T00:55:24.408Z,99797.26
2022-07-31T00:56:28.489Z,99799.09
2022-07-31T00:57:30.769Z,99790.98
2022-07-31T00:58:34.161Z,99790.14
2022-07-31T00:59:36.623Z,99801.79
2022-07-31T01:00:39.645Z,99796.38
2022-07-31T01:01:42.270Z,99802.66
2022-07-31T01:02:46.685Z,99790.98
2022-07-31T01:03:49.886Z,99809.89
2022-07-31T01:04:53.764Z,99808.06
2022-07-31T01:05:56.179Z,99804.49
2022-07-31T01:06:58.691Z,99802.66
2022-07-31T01:08:02.778Z,99805.36
2022-07-31T01:09:05.321Z,99796.38
2022-07-31T01:10:09.361Z,99792.69
2022-07-31T01:12:56.298Z,99790.10
2022-07-31T01:14:00.620Z,99802.66
2022-07-31T01:15:04.735Z,99793.98
2022-07-31T01:16:07.251Z,99794.28
2022-07-31T01:17:09.651Z,99791.58
2022-07-31T01:18:12.659Z,99801.41
2022-07-31T01:19:40.845Z,99800.53
2022-07-31T01:20:31.957Z,99797.83
2022-07-31T01:23:04.909Z,99795.96
2022-07-31T01:24:25.393Z,99797.83
2022-07-31T01:26:03.814Z,99801.41
2022-07-31T01:29:02.545Z,99788.84
2022-07-31T01:30:06.112Z,99788.16
2022-07-31T01:31:31.418Z,99791.89
2022-07-31T01:32:27.890Z,99787.47
2022-07-31T01:33:36.137Z,99790.17
2022-07-31T01:34:52.242Z,99792.03
2022-07-31T01:35:57.146Z,99789.34
2022-07-31T01:37:28.388Z,99793.03
2022-07-31T01:38:33.200Z,99785.91
2022-07-31T01:39:35.892Z,99783.36
2022-07-31T01:40:42.130Z,99788.91
2022-07-31T01:41:46.127Z,99787.35
2022-07-31T01:44:03.844Z,99771.11
2022-07-31T01:45:07.693Z,99776.70
2022-07-31T01:47:25.624Z,99774.80
2022-07-31T01:48:28.457Z,99782.09
2022-07-31T01:49:31.775Z,99781.11
2022-07-31T01:50:43.664Z,99778.41
2022-07-31T01:51:40.043Z,99783.66
2022-07-31T01:52:42.392Z,99773.69
2022-07-31T01:53:47.076Z,99775.41
2022-07-31T01:54:49.905Z,99778.95
2022-07-31T01:56:02.004Z,99771.71
2022-07-31T01:56:59.340Z,99773.54
2022-07-31T01:58:03.129Z,99766.16
2022-07-31T01:59:20.497Z,99777.80
2022-07-31T02:00:34.381Z,99774.27
2022-07-31T02:01:26.947Z,99774.27
2022-07-31T02:02:28.781Z,99767.00
2022-07-31T02:03:42.781Z,99760.91
2022-07-31T02:04:36.246Z,99764.30
2022-07-31T02:05:39.224Z,99755.50
2022-07-31T02:06:42.109Z,99758.05
2022-07-31T02:07:44.807Z,99758.20
2022-07-31T02:08:50.110Z,99759.04
2022-07-31T02:09:58.755Z,99763.45
2022-07-31T02:10:59.343Z,99761.74
2022-07-31T02:12:02.119Z,99766.16
2022-07-31T02:13:06.342Z,99767.14
2022-07-31T02:14:09.953Z,99760.03
2022-07-31T02:15:13.515Z,99766.30
2022-07-31T02:16:18.918Z,99761.74
2022-07-31T02:17:22.831Z,99774.27
2022-07-31T02:18:40.355Z,99761.74
2022-07-31T02:19:57.829Z,99763.61
2022-07-31T02:20:52.255Z,99760.91
2022-07-31T02:21:56.029Z,99760.03
2022-07-31T02:22:58.739Z,99761.89
2022-07-31T02:24:01.776Z,99760.91
2022-07-31T02:25:06.410Z,99758.35
2022-07-31T02:26:10.188Z,99765.44
2022-07-31T02:27:58.213Z,99772.70
2022-07-31T02:28:17.991Z,99769.16
2022-07-31T02:29:21.277Z,99772.70
2022-07-31T02:30:39.129Z,99771.86
2022-07-31T02:31:35.006Z,99776.24
2022-07-31T02:32:37.775Z,99773.54
2022-07-31T02:33:42.901Z,99771.71
2022-07-31T02:34:45.877Z,99774.41
2022-07-31T02:35:49.477Z,99778.11
2022-07-31T02:36:52.963Z,99778.95
2022-07-31T02:37:56.784Z,99772.70
2022-07-31T02:38:59.523Z,99782.67
2022-07-31T02:40:02.874Z,99783.51
2022-07-31T02:41:07.187Z,99780.81
2022-07-31T02:42:10.172Z,99785.38
2022-07-31T02:43:13.591Z,99788.08
2022-07-31T02:44:16.674Z,99787.05
2022-07-31T02:45:21.285Z,99789.75
2022-07-31T02:46:24.863Z,99779.97
2022-07-31T02:47:27.459Z,99786.21
2022-07-31T02:48:32.273Z,99785.38
2022-07-31T02:49:36.878Z,99779.97
2022-07-31T02:50:39.957Z,99785.38
2022-07-31T02:51:43.598Z,99781.80
2022-07-31T02:52:47.005Z,99785.48
2022-07-31T02:53:49.664Z,99789.06
2022-07-31T02:54:53.201Z,99782.78
2022-07-31T02:55:56.080Z,99783.66
2022-07-31T02:56:58.869Z,99786.52
2022-07-31T02:58:02.758Z,99790.89
2022-07-31T02:59:05.198Z,99781.11
2022-07-31T03:00:15.023Z,99791.05
2022-07-31T03:01:17.964Z,99784.80
2022-07-31T03:02:21.552Z,99784.80
2022-07-31T03:03:24.067Z,99786.66
2022-07-31T03:04:26.431Z,99790.36
2022-07-31T03:05:29.542Z,99793.05
2022-07-31T03:06:33.193Z,99786.78
2022-07-31T03:07:35.756Z,99790.36
2022-07-31T03:08:38.054Z,99794.89
2022-07-31T03:09:41.260Z,99794.05
2022-07-31T03:10:51.651Z,99790.50
2022-07-31T03:11:54.021Z,99793.20
2022-07-31T03:12:57.905Z,99792.33
2022-07-31T03:14:00.477Z,99795.03
2022-07-31T03:15:03.560Z,99795.03
2022-07-31T03:16:07.597Z,99792.33
2022-07-31T03:17:10.436Z,99795.91
2022-07-31T03:18:13.862Z,99796.75
2022-07-31T03:19:17.510Z,99797.73
2022-07-31T03:20:20.688Z,99794.20
2022-07-31T03:21:23.150Z,99801.46
2022-07-31T03:22:25.705Z,99803.30
2022-07-31T03:23:28.343Z,99811.39
2022-07-31T03:24:35.426Z,99806.86
2022-07-31T03:25:37.932Z,99802.30
2022-07-31T03:26:40.698Z,99798.61
2022-07-31T03:27:43.159Z,99801.16
2022-07-31T03:28:48.291Z,99804.70
2022-07-31T03:29:51.166Z,99804.70
2022-07-31T03:30:56.148Z,99799.30
2022-07-31T03:32:00.659Z,99801.02
2022-07-31T03:33:04.282Z,99793.75
2022-07-31T03:34:07.983Z,99795.45
2022-07-31T03:35:10.941Z,99796.30
2022-07-31T03:36:14.566Z,99797.17
2022-07-31T03:37:18.041Z,99792.61
2022-07-31T03:38:39.119Z,99794.47
2022-07-31T03:39:25.670Z,99785.48
2022-07-31T03:40:31.884Z,99789.22
2022-07-31T03:41:34.771Z,99786.52
2022-07-31T03:42:37.349Z,99789.22
2022-07-31T03:43:46.990Z,99791.91
2022-07-31T03:44:44.977Z,99790.05
2022-07-31T03:45:48.445Z,99786.36
2022-07-31T03:46:52.312Z,99793.48
2022-07-31T03:47:54.668Z,99790.78
2022-07-31T03:48:57.817Z,99783.51
2022-07-31T03:50:01.340Z,99780.81
2022-07-31T03:51:05.809Z,99786.06
2022-07-31T03:52:11.934Z,99788.77
2022-07-31T03:53:12.740Z,99790.63
2022-07-31T03:54:16.930Z,99791.62
2022-07-31T03:55:21.512Z,99793.48
2022-07-31T03:56:25.390Z,99790.78
2022-07-31T03:57:29.196Z,99794.31
2022-07-31T03:58:32.714Z,99788.91
2022-07-31T03:59:40.546Z,99792.45
2022-07-31T04:00:41.800Z,99787.05
2022-07-31T04:01:57.513Z,99788.91
2022-07-31T04:02:56.463Z,99795.16
2022-07-31T04:04:17.198Z,99787.92
2022-07-31T04:05:26.736Z,99783.51
2022-07-31T04:06:30.423Z,99787.05
2022-07-31T04:07:33.198Z,99781.64
2022-07-31T04:08:35.564Z,99781.64
2022-07-31T04:09:38.847Z,99782.78
2022-07-31T04:10:42.331Z,99776.55
2022-07-31T04:11:46.743Z,99784.65
2022-07-31T04:12:49.462Z,99784.65
2022-07-31T04:13:53.454Z,99784.65
2022-07-31T04:14:56.368Z,99785.48
2022-07-31T04:15:58.725Z,99781.95
2022-07-31T04:17:01.224Z,99778.41
2022-07-31T04:18:03.980Z,99785.64
2022-07-31T04:19:08.669Z,99782.94
2022-07-31T04:20:14.554Z,99779.39
2022-07-31T04:21:17.276Z,99776.70
2022-07-31T04:22:19.582Z,99776.70
2022-07-31T04:23:22.597Z,99780.39
2022-07-31T04:24:34.235Z,99778.56
2022-07-31T04:25:36.434Z,99780.39
2022-07-31T04:26:48.071Z,99784.08
2022-07-31T04:27:51.902Z,99779.70
2022-07-31T04:28:54.223Z,99782.40
2022-07-31T04:29:57.861Z,99778.83
2022-07-31T04:31:00.647Z,99784.38
2022-07-31T04:32:05.203Z,99783.54
2022-07-31T04:33:09.625Z,99786.24
2022-07-31T04:34:13.920Z,99785.25
2022-07-31T04:35:17.002Z,99785.25
2022-07-31T04:36:29.845Z,99779.84
2022-07-31T04:37:24.802Z,99776.27
2022-07-31T04:38:27.886Z,99780.84
2022-07-31T04:39:30.313Z,99777.27
2022-07-31T04:40:35.163Z,99782.55
2022-07-31T04:41:37.625Z,99776.27
2022-07-31T04:42:39.982Z,99772.73
2022-07-31T04:43:42.553Z,99772.73
2022-07-31T04:44:45.532Z,99771.02
2022-07-31T04:45:47.794Z,99777.41
2022-07-31T04:46:50.422Z,99782.81
2022-07-31T04:47:53.010Z,99784.53
2022-07-31T04:48:55.449Z,99776.42
2022-07-31T04:49:59.856Z,99779.97
2022-07-31T04:51:03.185Z,99776.27
2022-07-31T04:52:06.120Z,99782.55
2022-07-31T04:53:09.337Z,99781.68
2022-07-31T04:54:13.544Z,99778.13
2022-07-31T04:55:16.078Z,99775.44
2022-07-31T04:56:18.998Z,99774.56
2022-07-31T04:57:22.087Z,99776.42
2022-07-31T04:58:25.111Z,99769.16
2022-07-31T04:59:59.003Z,99773.57
2022-07-31T05:00:35.294Z,99779.84
2022-07-31T05:01:40.059Z,99769.88
2022-07-31T05:02:42.983Z,99775.28
2022-07-31T05:03:46.174Z,99769.88
2022-07-31T05:04:56.664Z,99776.12
2022-07-31T05:05:54.701Z,99776.12
2022-07-31T05:06:57.563Z,99775.14
2022-07-31T05:08:00.636Z,99769.73
2022-07-31T05:09:08.930Z,99773.27
2022-07-31T05:10:10.793Z,99780.39
2022-07-31T05:11:13.907Z,99775.86
2022-07-31T05:12:17.040Z,99767.75
2022-07-31T05:13:19.500Z,99773.16
2022-07-31T05:14:23.208Z,99770.45
2022-07-31T05:15:25.924Z,99770.45
2022-07-31T05:16:29.160Z,99771.30
2022-07-31T05:17:32.242Z,99773.84
2022-07-31T05:18:39.621Z,99777.53
2022-07-31T05:19:55.968Z,99776.70
2022-07-31T05:21:01.548Z,99777.53
2022-07-31T05:22:08.948Z,99780.09
2022-07-31T05:23:13.528Z,99774.83
2022-07-31T05:25:37.806Z,99771.95
2022-07-31T05:26:40.623Z,99776.55
2022-07-31T05:27:43.014Z,99769.58
2022-07-31T05:28:47.677Z,99770.45
2022-07-31T05:29:50.983Z,99769.43
2022-07-31T05:30:53.304Z,99777.38
2022-07-31T05:32:00.594Z,99780.95
2022-07-31T05:33:02.346Z,99775.41
2022-07-31T05:34:04.699Z,99777.11
2022-07-31T05:35:09.222Z,99769.16
2022-07-31T05:36:14.371Z,99765.44
2022-07-31T05:37:17.117Z,99770.84
2022-07-31T05:38:20.003Z,99763.61
2022-07-31T05:39:27.027Z,99764.59
2022-07-31T05:40:47.718Z,99760.33
2022-07-31T05:43:18.589Z,99762.84
2022-07-31T05:44:23.206Z,99759.34
2022-07-31T05:45:26.839Z,99761.17
2022-07-31T05:46:30.593Z,99769.28
2022-07-31T05:47:40.457Z,99757.63
2022-07-31T05:48:37.934Z,99761.17
2022-07-31T05:49:40.244Z,99758.63
2022-07-31T05:51:56.109Z,99771.11
2022-07-31T05:52:58.363Z,99774.83
2022-07-31T05:54:20.201Z,99773.00
2022-07-31T05:55:41.614Z,99771.98
2022-07-31T05:56:47.082Z,99766.58
2022-07-31T05:57:51.758Z,99761.05
2022-07-31T05:58:54.103Z,99769.16
2022-07-31T05:59:57.512Z,99762.88
2022-07-31T06:01:02.418Z,99763.75
2022-07-31T06:02:05.307Z,99775.41
2022-07-31T06:03:09.889Z,99775.41
2022-07-31T06:04:23.448Z,99770.00
2022-07-31T06:05:26.807Z,99771.71
2022-07-31T06:06:30.116Z,99776.24
2022-07-31T06:07:34.148Z,99764.59
2022-07-31T06:08:38.262Z,99767.45
2022-07-31T06:09:40.569Z,99762.88
2022-07-31T06:10:44.213Z,99770.00
2022-07-31T06:11:46.598Z,99767.14
2022-07-31T06:12:48.874Z,99766.16
2022-07-31T06:13:52.254Z,99771.41
2022-07-31T06:14:56.589Z,99764.14
2022-07-31T06:16:14.634Z,99765.02
2022-07-31T06:17:17.084Z,99768.55
2022-07-31T06:18:19.542Z,99763.98
2022-07-31T06:19:24.451Z,99774.80
2022-07-31T06:20:26.822Z,99769.39
2022-07-31T06:21:31.807Z,99768.41
2022-07-31T06:22:35.039Z,99768.41
2022-07-31T06:23:38.117Z,99776.52
2022-07-31T06:24:43.531Z,99777.34
2022-07-31T06:25:46.067Z,99769.24
2022-07-31T06:26:50.814Z,99770.95
2022-07-31T06:27:59.171Z,99771.67
2022-07-31T06:28:59.350Z,99768.10
2022-07-31T06:30:03.252Z,99760.86
2022-07-31T06:31:07.548Z,99769.66
2022-07-31T06:32:10.325Z,99771.52
2022-07-31T06:33:16.692Z,99766.80
2022-07-31T06:34:20.103Z,99768.67
2022-07-31T06:35:23.564Z,99767.83
2022-07-31T06:36:44.248Z,99767.83
2022-07-31T06:37:49.006Z,99774.08
2022-07-31T06:38:52.453Z,99772.21
2022-07-31T06:40:00.924Z,99766.80
2022-07-31T06:41:21.240Z,99773.08
2022-07-31T06:42:26.053Z,99770.38
2022-07-31T06:43:40.370Z,99755.31
2022-07-31T06:46:04.857Z,99761.51
2022-07-31T06:48:25.166Z,99759.95
2022-07-31T06:51:08.567Z,99747.50
2022-07-31T06:52:05.251Z,99755.88
2022-07-31T06:53:06.057Z,99750.78
2022-07-31T06:54:09.649Z,99755.34
2022-07-31T06:55:12.805Z,99749.94
2022-07-31T06:56:16.017Z,99749.79
2022-07-31T06:57:18.191Z,99745.38
2022-07-31T06:58:20.644Z,99746.09
2022-07-31T06:59:39.605Z,99749.64
2022-07-31T07:00:31.149Z,99750.48
2022-07-31T07:01:33.584Z,99739.67
2022-07-31T07:02:36.736Z,99737.69
2022-07-31T07:03:39.372Z,99736.70
2022-07-31T07:05:00.761Z,99737.53
2022-07-31T07:05:47.815Z,99741.08
2022-07-31T07:06:52.023Z,99732.97
2022-07-31T07:07:54.916Z,99734.68
2022-07-31T07:08:57.443Z,99729.27
2022-07-31T07:10:02.118Z,99731.98
2022-07-31T07:11:23.033Z,99727.41
2022-07-31T07:12:25.512Z,99734.68
2022-07-31T07:13:44.953Z,99730.11
2022-07-31T07:14:35.149Z,99730.11
2022-07-31T07:15:37.536Z,99731.98
2022-07-31T07:16:40.916Z,99732.81
2022-07-31T07:17:43.905Z,99728.28
2022-07-31T07:18:48.749Z,99730.83
2022-07-31T07:19:55.746Z,99726.27
2022-07-31T07:20:56.522Z,99728.81
2022-07-31T07:22:00.647Z,99728.66
2022-07-31T07:23:03.405Z,99732.23
2022-07-31T07:24:11.717Z,99725.84
2022-07-31T07:25:27.848Z,99722.98
2022-07-31T07:26:33.123Z,99728.39
2022-07-31T07:27:37.321Z,99723.82
2022-07-31T07:28:40.743Z,99725.53
2022-07-31T07:29:44.834Z,99721.12
2022-07-31T07:30:47.691Z,99723.67
2022-07-31T07:31:53.359Z,99722.83
2022-07-31T07:32:56.860Z,99730.06
2022-07-31T07:33:59.977Z,99719.41
2022-07-31T07:35:02.560Z,99731.09
2022-07-31T07:36:08.131Z,99718.56
2022-07-31T07:37:13.633Z,99728.39
2022-07-31T07:38:16.118Z,99721.12
2022-07-31T07:39:18.574Z,99726.52
2022-07-31T07:40:21.819Z,99720.13
2022-07-31T07:41:24.807Z,99728.08
2022-07-31T07:42:27.330Z,99716.55
2022-07-31T07:43:30.234Z,99723.67
2022-07-31T07:44:33.958Z,99725.53
2022-07-31T07:45:36.418Z,99719.25
2022-07-31T07:46:39.193Z,99722.83
2022-07-31T07:48:02.315Z,99727.24
2022-07-31T07:48:49.723Z,99724.54
2022-07-31T07:49:55.004Z,99724.39
2022-07-31T07:51:16.390Z,99720.81
2022-07-31T07:53:34.434Z,99723.30
2022-07-31T07:56:26.763Z,99726.22
2022-07-31T07:57:50.941Z,99721.68
2022-07-31T08:00:18.514Z,99723.46
2022-07-31T08:03:46.765Z,99730.06
2022-07-31T08:03:52.463Z,99721.12
2022-07-31T08:04:56.105Z,99722.98
2022-07-31T08:06:01.229Z,99722.11
2022-07-31T08:07:03.597Z,99722.27
2022-07-31T08:08:08.314Z,99720.44
2022-07-31T08:09:12.807Z,99720.55
2022-07-31T08:10:35.261Z,99724.28
2022-07-31T08:11:40.789Z,99720.70
2022-07-31T08:12:46.436Z,99725.13
2022-07-31T08:13:51.557Z,99725.95
2022-07-31T08:14:57.511Z,99722.42
2022-07-31T08:16:19.522Z,99716.02
2022-07-31T08:17:24.446Z,99717.85
2022-07-31T08:18:28.720Z,99713.16
2022-07-31T08:19:32.711Z,99716.86
2022-07-31T08:20:38.888Z,99714.16
2022-07-31T08:21:41.286Z,99709.63
2022-07-31T08:22:44.966Z,99716.86
2022-07-31T08:23:47.741Z,99714.16
2022-07-31T08:24:52.044Z,99704.22
2022-07-31T08:25:55.278Z,99708.75
2022-07-31T08:26:59.338Z,99711.30
2022-07-31T08:28:03.834Z,99718.41
2022-07-31T08:29:10.226Z,99710.31
2022-07-31T08:30:17.126Z,99710.31
2022-07-31T08:31:19.757Z,99706.61
2022-07-31T08:32:26.970Z,99714.72
2022-07-31T08:33:31.117Z,99719.97
2022-07-31T08:34:35.043Z,99715.41
2022-07-31T08:35:39.929Z,99718.11
2022-07-31T08:36:44.736Z,99710.00
2022-07-31T08:37:52.024Z,99711.86
2022-07-31T08:38:52.339Z,99707.30
2022-07-31T08:40:10.288Z,99699.19
2022-07-31T08:41:13.665Z,99708.17
2022-07-31T08:42:17.143Z,99701.05
2022-07-31T08:44:26.432Z,99710.16
2022-07-31T08:45:30.277Z,99707.45
2022-07-31T08:46:38.179Z,99703.75
2022-07-31T08:47:44.012Z,99710.87
2022-07-31T08:48:49.597Z,99703.59
2022-07-31T08:49:52.832Z,99699.03
2022-07-31T08:50:56.322Z,99702.61
2022-07-31T08:52:21.718Z,99706.15
2022-07-31T08:53:31.739Z,99707.86
2022-07-31T08:54:37.219Z,99701.61
2022-07-31T08:55:55.067Z,99699.91
2022-07-31T08:56:44.460Z,99699.91
2022-07-31T08:57:48.177Z,99706.15
2022-07-31T08:58:50.918Z,99700.74
2022-07-31T08:59:54.539Z,99690.80
2022-07-31T09:00:58.531Z,99690.80
2022-07-31T09:02:01.370Z,99703.30
2022-07-31T09:03:05.496Z,99697.05
2022-07-31T09:04:20.377Z,99693.35
2022-07-31T09:05:23.449Z,99694.34
2022-07-31T09:06:27.037Z,99684.37
2022-07-31T09:07:29.440Z,99686.23
2022-07-31T09:08:35.749Z,99686.23
2022-07-31T09:09:51.880Z,99687.95
2022-07-31T09:10:49.998Z,99687.95
2022-07-31T09:11:52.794Z,99673.55
2022-07-31T09:14:29.944Z,99678.66
2022-07-31T09:15:32.477Z,99671.56
2022-07-31T09:16:45.237Z,99672.41
2022-07-31T09:17:53.862Z,99675.95
2022-07-31T09:20:12.371Z,99665.82
2022-07-31T09:21:15.164Z,99660.59
2022-07-31T09:22:27.869Z,99667.00
2022-07-31T09:23:32.392Z,99660.59
2022-07-31T09:24:37.016Z,99658.73
2022-07-31T09:25:39.225Z,99655.66
2022-07-31T09:26:44.066Z,99655.66
2022-07-31T09:27:49.932Z,99662.31
2022-07-31T09:28:53.723Z,99662.31
2022-07-31T09:29:57.063Z,99676.51
2022-07-31T09:32:19.381Z,99666.50
2022-07-31T09:33:27.125Z,99663.83
2022-07-31T09:34:41.053Z,99665.70
2022-07-31T09:35:49.055Z,99660.29
2022-07-31T09:36:52.669Z,99671.10
2022-07-31T09:38:14.037Z,99667.41
2022-07-31T09:39:36.792Z,99665.70
2022-07-31T09:42:28.925Z,99664.83
2022-07-31T09:43:33.441Z,99664.14
2022-07-31T09:44:38.980Z,99662.31
2022-07-31T09:45:48.210Z,99660.59
2022-07-31T09:46:48.877Z,99659.73
2022-07-31T09:48:07.408Z,99662.44
2022-07-31T09:49:09.896Z,99661.59
2022-07-31T09:50:16.591Z,99659.61
2022-07-31T09:51:19.247Z,99656.03
2022-07-31T09:52:21.822Z,99655.19
2022-07-31T09:53:24.177Z,99661.44
2022-07-31T09:54:29.498Z,99650.63
2022-07-31T09:55:34.306Z,99644.38
2022-07-31T09:56:37.308Z,99659.61
2022-07-31T09:59:06.074Z,99650.59
2022-07-31T10:00:15.395Z,99648.08
2022-07-31T10:01:19.181Z,99643.51
2022-07-31T10:02:21.583Z,99639.12
2022-07-31T10:03:25.820Z,99644.53
2022-07-31T10:04:28.793Z,99650.78
2022-07-31T10:05:31.666Z,99649.78
2022-07-31T10:06:37.537Z,99643.38
2022-07-31T10:07:40.001Z,99647.09
2022-07-31T10:08:44.458Z,99643.51
2022-07-31T10:11:08.203Z,99633.38
2022-07-31T10:12:17.400Z,99638.97
2022-07-31T10:13:21.047Z,99637.11
2022-07-31T10:14:28.242Z,99634.41
2022-07-31T10:15:31.858Z,99638.66
2022-07-31T10:16:36.546Z,99628.69
2022-07-31T10:17:57.374Z,99634.09
2022-07-31T10:19:11.790Z,99633.09
2022-07-31T10:20:18.844Z,99640.21
2022-07-31T10:21:28.963Z,99627.69
2022-07-31T10:22:38.400Z,99632.27
2022-07-31T10:23:41.214Z,99634.09
2022-07-31T10:24:45.388Z,99626.85
2022-07-31T10:25:53.874Z,99625.98
2022-07-31T10:27:01.128Z,99617.88
2022-07-31T10:28:03.289Z,99629.55
2022-07-31T10:29:05.883Z,99625.86
2022-07-31T10:30:10.201Z,99624.98
2022-07-31T10:31:14.541Z,99622.28
2022-07-31T10:32:18.148Z,99625.98
2022-07-31T10:34:53.373Z,99619.37
2022-07-31T10:36:05.571Z,99609.64
2022-07-31T10:37:13.530Z,99615.05
2022-07-31T10:38:58.077Z,99612.34
2022-07-31T10:40:12.931Z,99610.47
2022-07-31T10:41:37.652Z,99624.15
2022-07-31T10:43:13.357Z,99617.88
2022-07-31T10:44:22.686Z,99619.73
2022-07-31T10:45:53.554Z,99623.44
2022-07-31T10:47:14.312Z,99620.89
2022-07-31T10:48:21.987Z,99616.63
2022-07-31T10:49:42.900Z,99617.66
2022-07-31T10:51:06.864Z,99615.95
2022-07-31T10:52:32.774Z,99610.70
2022-07-31T10:55:20.932Z,99608.92
2022-07-31T10:57:56.397Z,99613.65
2022-07-31T11:01:09.210Z,99614.71
2022-07-31T11:02:33.253Z,99606.61
2022-07-31T11:03:42.294Z,99597.63
2022-07-31T11:05:17.942Z,99605.73
2022-07-31T11:08:02.106Z,99603.83
2022-07-31T11:09:06.593Z,99604.05
2022-07-31T11:11:33.517Z,99604.14
2022-07-31T11:13:58.161Z,99589.60
2022-07-31T11:16:35.091Z,99581.33
2022-07-31T11:18:23.782Z,99592.22
2022-07-31T11:19:05.250Z,99591.22
2022-07-31T11:21:38.870Z,99590.71
2022-07-31T11:22:38.046Z,99596.31
2022-07-31T11:23:40.333Z,99591.78
2022-07-31T11:26:06.102Z,99587.72
2022-07-31T11:27:09.457Z,99586.90
2022-07-31T11:28:20.054Z,99583.36
2022-07-31T11:30:02.012Z,99568.84
2022-07-31T11:30:49.698Z,99582.36
2022-07-31T11:31:52.588Z,99574.09
2022-07-31T11:32:56.085Z,99576.80
2022-07-31T11:34:01.937Z,99575.80
2022-07-31T11:35:05.334Z,99586.61
2022-07-31T11:36:10.500Z,99581.89
2022-07-31T11:37:31.841Z,99588.14
2022-07-31T11:38:30.629Z,99574.62
2022-07-31T11:39:36.709Z,99568.22
2022-07-31T11:40:38.525Z,99571.78
2022-07-31T11:41:44.241Z,99572.63
2022-07-31T11:42:59.829Z,99567.22
2022-07-31T11:43:51.781Z,99563.55
2022-07-31T11:45:10.768Z,99574.36
2022-07-31T11:46:08.238Z,99570.80
2022-07-31T11:48:09.944Z,99564.39
2022-07-31T11:48:16.935Z,99568.80
2022-07-31T11:49:39.206Z,99564.39
2022-07-31T11:50:28.401Z,99566.09
2022-07-31T11:51:37.641Z,99566.94
2022-07-31T11:52:40.502Z,99566.09
2022-07-31T11:53:42.931Z,99562.52
2022-07-31T11:54:51.249Z,99563.39
2022-07-31T11:55:55.838Z,99559.69
2022-07-31T11:56:58.733Z,99557.83
2022-07-31T11:58:01.269Z,99555.96
2022-07-31T11:59:03.898Z,99557.67
2022-07-31T12:00:29.369Z,99557.67
2022-07-31T12:01:18.389Z,99550.39
2022-07-31T12:02:20.769Z,99551.27
2022-07-31T12:03:25.339Z,99551.27
2022-07-31T12:04:28.454Z,99545.86
2022-07-31T12:05:37.873Z,99555.64
2022-07-31T12:06:36.611Z,99552.10
2022-07-31T12:07:43.529Z,99558.34
2022-07-31T12:08:49.370Z,99552.94
2022-07-31T12:10:02.105Z,99548.40
2022-07-31T12:10:58.088Z,99551.94
2022-07-31T12:12:01.681Z,99549.23
2022-07-31T12:13:04.962Z,99550.11
2022-07-31T12:14:07.487Z,99546.53
2022-07-31T12:15:19.735Z,99544.70
2022-07-31T12:16:23.766Z,99545.54
2022-07-31T12:17:26.200Z,99548.08
2022-07-31T12:18:28.863Z,99547.24
2022-07-31T12:20:57.220Z,99549.86
2022-07-31T12:22:00.114Z,99542.67
2022-07-31T12:23:04.312Z,99549.95
2022-07-31T12:25:22.960Z,99535.47
2022-07-31T12:26:29.216Z,99539.97
2022-07-31T12:27:32.203Z,99543.67
2022-07-31T12:28:35.785Z,99542.67
2022-07-31T12:29:38.781Z,99536.42
2022-07-31T12:30:41.788Z,99532.69
2022-07-31T12:31:52.286Z,99538.97
2022-07-31T12:32:58.440Z,99535.27
2022-07-31T12:34:01.209Z,99536.11
2022-07-31T12:35:06.028Z,99536.11
2022-07-31T12:36:15.621Z,99543.38
2022-07-31T12:37:17.833Z,99533.41
2022-07-31T12:38:47.842Z,99535.11
2022-07-31T12:39:53.747Z,99541.52
2022-07-31T12:40:38.320Z,99527.16
2022-07-31T12:41:41.656Z,99536.11
2022-07-31T12:42:44.389Z,99527.16
2022-07-31T12:43:51.511Z,99529.86
2022-07-31T12:44:54.136Z,99535.27
2022-07-31T12:45:56.526Z,99534.41
2022-07-31T12:46:59.761Z,99537.11
2022-07-31T12:48:05.725Z,99530.70
2022-07-31T12:49:09.281Z,99526.29
2022-07-31T12:50:14.020Z,99529.86
2022-07-31T12:51:16.716Z,99531.70
2022-07-31T12:52:19.162Z,99524.45
2022-07-31T12:53:22.509Z,99529.70
2022-07-31T12:54:25.234Z,99529.70
2022-07-31T12:55:28.494Z,99523.42
2022-07-31T12:56:39.312Z,99532.41
2022-07-31T12:57:51.311Z,99527.00
2022-07-31T12:58:47.292Z,99532.41
2022-07-31T12:59:50.673Z,99531.38
2022-07-31T13:00:53.468Z,99527.00
2022-07-31T13:01:55.950Z,99527.84
2022-07-31T13:02:58.851Z,99522.43
2022-07-31T13:04:03.251Z,99525.13
2022-07-31T13:05:07.680Z,99519.17
2022-07-31T13:06:13.022Z,99522.43
2022-07-31T13:07:16.080Z,99527.84
2022-07-31T13:08:20.477Z,99521.59
2022-07-31T13:09:23.779Z,99518.73
2022-07-31T13:10:32.205Z,99520.56
2022-07-31T13:11:46.872Z,99518.89
2022-07-31T13:12:37.091Z,99528.67
2022-07-31T13:13:39.679Z,99513.92
2022-07-31T13:14:43.403Z,99513.92
2022-07-31T13:15:45.830Z,99520.56
2022-07-31T13:16:49.424Z,99519.72
2022-07-31T13:17:51.997Z,99517.70
2022-07-31T13:18:55.051Z,99524.97
2022-07-31T13:19:57.247Z,99521.43
2022-07-31T13:20:59.696Z,99520.41
2022-07-31T13:22:02.255Z,99523.11
2022-07-31T13:23:04.559Z,99515.86
2022-07-31T13:24:07.417Z,99515.86
2022-07-31T13:25:11.101Z,99507.75
2022-07-31T13:26:14.775Z,99503.17
2022-07-31T13:27:17.343Z,99506.75
2022-07-31T13:28:19.739Z,99501.34
2022-07-31T13:29:22.574Z,99504.05
2022-07-31T13:30:25.751Z,99501.34
2022-07-31T13:31:28.653Z,99504.88
2022-07-31T13:32:31.342Z,99507.59
2022-07-31T13:33:34.891Z,99509.30
2022-07-31T13:34:40.232Z,99503.72
2022-07-31T13:35:42.723Z,99502.02